KSBA/SBA METAR and TAF weather

Enter ICAO airport designator
Station Type Date Time Source
KSBA METAR 2020/01/21 17:53 UTC NOAA

KSBA 211753Z 13005KT 10SM CLR 14/10 A3017 RMK AO2 SLP215 60001 T01390100 10144 20089 53018


Station Type Date Time Source
KSBA Decoded METAR 2020/01/21 17:53 UTC NOAA

SANTA BARBARA MUNICIPAL, CA, United States (KSBA) 34-26N 119-51W 3M
Jan 21, 2020 - 12:53 PM EST / 2020.01.21 1753 UTC
Wind: from the SE (130 degrees) at 6 MPH (5 KT):0
Visibility: 10 mile(s):0
Sky conditions: clear
Temperature: 57.0 F (13.9 C)
Dew Point: 50.0 F (10.0 C)
Relative Humidity: 77%
Pressure (altimeter): 30.17 in. Hg (1021 hPa)
Pressure tendency: 0.05 inches (1.8 hPa) higher than three hours ago
ob: KSBA 211753Z 13005KT 10SM CLR 14/10 A3017 RMK AO2 SLP215 60001 T01390100 10144 20089 53018
cycle: 18

Station Type Date Time Source
KSBA TAF 2020/01/21 18:33 UTC NOAA

TAF KSBA 211730Z 2118/2218 30003KT P6SM SCT040 BKN170
FM212100 23008KT P6SM BKN150
FM220300 VRB03KT P6SM BKN150
FM221600 16005KT P6SM SCT020 BKN150

Example: see airport list